createdAt,value
2019-06-08T00:00:47.268Z,100.00
2019-06-08T00:03:16.683Z,100.00
2019-06-08T00:05:45.445Z,100.00
2019-06-08T00:08:14.804Z,100.00
2019-06-08T00:10:43.436Z,100.00
2019-06-08T00:13:13.139Z,100.00
2019-06-08T00:15:41.842Z,100.00
2019-06-08T00:18:10.527Z,100.00
2019-06-08T00:20:39.453Z,100.00
2019-06-08T00:23:07.966Z,100.00
2019-06-08T00:25:36.686Z,100.00
2019-06-08T00:28:05.489Z,100.00
2019-06-08T00:30:35.275Z,100.00
2019-06-08T00:33:04.278Z,100.00
2019-06-08T00:35:32.850Z,100.00
2019-06-08T00:38:01.583Z,100.00
2019-06-08T00:40:30.342Z,100.00
2019-06-08T00:42:58.851Z,100.00
2019-06-08T00:45:27.404Z,100.00
2019-06-08T00:47:56.052Z,100.00
2019-06-08T00:50:25.155Z,100.00
2019-06-08T00:52:53.822Z,100.00
2019-06-08T00:55:23.662Z,100.00
2019-06-08T00:57:52.780Z,100.00
2019-06-08T01:00:22.586Z,100.00
2019-06-08T01:02:51.276Z,100.00
2019-06-08T01:05:20.017Z,100.00
2019-06-08T01:07:48.754Z,100.00
2019-06-08T01:10:19.150Z,100.00
2019-06-08T01:12:47.763Z,100.00
2019-06-08T01:15:16.895Z,100.00
2019-06-08T01:18:01.335Z,100.00
2019-06-08T01:20:16.416Z,100.00
2019-06-08T01:22:45.037Z,100.00
2019-06-08T01:25:14.049Z,100.00
2019-06-08T01:27:42.769Z,100.00
2019-06-08T01:30:11.789Z,100.00
2019-06-08T01:32:40.540Z,100.00
2019-06-08T01:35:09.250Z,100.00
2019-06-08T01:37:37.987Z,100.00
2019-06-08T01:40:07.734Z,100.00
2019-06-08T01:42:36.449Z,100.00
2019-06-08T01:45:07.192Z,100.00
2019-06-08T01:47:35.834Z,100.00
2019-06-08T01:50:05.632Z,100.00
2019-06-08T01:52:34.829Z,100.00
2019-06-08T01:55:04.379Z,100.00
2019-06-08T01:57:33.831Z,100.00
2019-06-08T02:00:28.761Z,100.00
2019-06-08T02:02:34.219Z,100.00
2019-06-08T02:05:03.228Z,100.00
2019-06-08T02:07:32.425Z,99.47
2019-06-08T02:10:01.152Z,99.91
2019-06-08T02:12:31.065Z,96.57
2019-06-08T02:15:00.154Z,96.57
2019-06-08T02:17:29.354Z,96.10
2019-06-08T02:19:58.001Z,95.30
2019-06-08T02:22:26.795Z,91.65
2019-06-08T02:24:55.224Z,89.82
2019-06-08T02:27:23.727Z,87.03
2019-06-08T02:29:52.210Z,87.14
2019-06-08T02:32:20.679Z,86.66
2019-06-08T02:34:49.436Z,87.03
2019-06-08T02:37:18.150Z,87.10
2019-06-08T02:39:46.706Z,86.33
2019-06-08T02:42:15.259Z,86.07
2019-06-08T02:44:43.767Z,86.50
2019-06-08T02:47:16.178Z,86.07
2019-06-08T02:49:42.508Z,85.17
2019-06-08T02:52:11.535Z,84.03
2019-06-08T02:54:41.357Z,82.59
2019-06-08T02:57:11.434Z,82.16
2019-06-08T02:59:41.443Z,79.61
2019-06-08T03:02:11.764Z,79.48
2019-06-08T03:04:41.318Z,78.68
2019-06-08T03:07:10.921Z,77.36
2019-06-08T03:09:41.094Z,77.90
2019-06-08T03:12:09.708Z,77.10
2019-06-08T03:14:41.857Z,75.11
2019-06-08T03:17:09.961Z,74.87
2019-06-08T03:19:39.962Z,74.83
2019-06-08T03:22:10.909Z,74.84
2019-06-08T03:24:38.893Z,73.88
2019-06-08T03:27:07.344Z,73.29
2019-06-08T03:29:37.264Z,74.31
2019-06-08T03:32:06.056Z,73.09
2019-06-08T03:34:35.707Z,73.63
2019-06-08T03:37:04.806Z,72.85
2019-06-08T03:39:35.247Z,73.12
2019-06-08T03:42:03.618Z,73.41
2019-06-08T03:44:32.114Z,71.63
2019-06-08T03:47:00.595Z,72.31
2019-06-08T03:49:40.989Z,72.80
2019-06-08T03:51:59.373Z,71.70
2019-06-08T03:54:27.875Z,72.05
2019-06-08T03:56:56.461Z,72.12
2019-06-08T03:59:24.969Z,72.15
2019-06-08T04:01:53.507Z,71.25
2019-06-08T04:04:22.002Z,71.68
2019-06-08T04:06:50.482Z,71.66
2019-06-08T04:09:18.995Z,71.68
2019-06-08T04:11:47.461Z,71.93
2019-06-08T04:14:15.973Z,72.25
2019-06-08T04:16:45.056Z,71.14
2019-06-08T04:19:14.666Z,70.32
2019-06-08T04:21:44.317Z,70.68
2019-06-08T04:24:12.892Z,70.11
2019-06-08T04:26:42.936Z,70.81
2019-06-08T04:29:11.602Z,70.40
2019-06-08T04:31:41.776Z,69.15
2019-06-08T04:34:10.437Z,70.26
2019-06-08T04:36:39.055Z,71.28
2019-06-08T04:39:08.430Z,71.11
2019-06-08T04:41:38.507Z,70.43
2019-06-08T04:44:07.138Z,69.44
2019-06-08T04:46:35.640Z,69.53
2019-06-08T04:49:04.238Z,68.42
2019-06-08T04:51:32.754Z,67.68
2019-06-08T04:54:01.247Z,68.92
2019-06-08T04:56:29.749Z,66.40
2019-06-08T04:58:58.225Z,68.75
2019-06-08T05:01:26.730Z,66.46
2019-06-08T05:03:55.207Z,68.08
2019-06-08T05:06:23.717Z,68.32
2019-06-08T05:08:52.187Z,68.31
2019-06-08T05:11:20.804Z,68.50
2019-06-08T05:13:49.852Z,68.97
2019-06-08T05:16:18.523Z,69.80
2019-06-08T05:18:47.389Z,70.57
2019-06-08T05:21:16.022Z,69.39
2019-06-08T05:23:45.590Z,68.91
2019-06-08T05:26:14.505Z,70.41
2019-06-08T05:28:43.222Z,71.45
2019-06-08T05:31:11.818Z,72.23
2019-06-08T05:33:41.318Z,73.49
2019-06-08T05:36:09.934Z,79.04
2019-06-08T05:38:39.459Z,80.72
2019-06-08T05:41:07.988Z,83.75
2019-06-08T05:43:36.569Z,85.02
2019-06-08T05:46:05.372Z,86.98
2019-06-08T05:48:33.863Z,87.54
2019-06-08T05:51:04.190Z,90.12
2019-06-08T05:53:32.748Z,94.39
2019-06-08T05:56:01.255Z,91.10
2019-06-08T05:58:29.722Z,87.27
2019-06-08T06:00:58.305Z,86.03
2019-06-08T06:03:26.787Z,86.06
2019-06-08T06:05:55.280Z,90.10
2019-06-08T06:08:23.750Z,88.92
2019-06-08T06:10:52.261Z,89.23
2019-06-08T06:13:20.740Z,85.17
2019-06-08T06:15:49.254Z,84.13
2019-06-08T06:18:17.702Z,83.28
2019-06-08T06:20:47.293Z,83.10
2019-06-08T06:23:15.822Z,81.63
2019-06-08T06:25:45.383Z,80.26
2019-06-08T06:28:13.970Z,81.71
2019-06-08T06:30:44.116Z,79.65
2019-06-08T06:33:12.720Z,80.34
2019-06-08T06:35:41.637Z,78.48
2019-06-08T06:38:10.269Z,81.80
2019-06-08T06:40:38.827Z,80.81
2019-06-08T06:43:07.326Z,81.82
2019-06-08T06:45:35.805Z,79.17
2019-06-08T06:48:04.391Z,79.10
2019-06-08T06:50:32.852Z,73.30
2019-06-08T06:53:01.348Z,71.17
2019-06-08T06:55:29.833Z,73.97
2019-06-08T06:57:58.326Z,74.79
2019-06-08T07:00:32.140Z,74.84
2019-06-08T07:03:01.883Z,72.04
2019-06-08T07:05:30.421Z,72.06
2019-06-08T07:07:58.927Z,73.44
2019-06-08T07:10:27.397Z,73.39
2019-06-08T07:12:55.898Z,73.07
2019-06-08T07:15:26.795Z,74.90
2019-06-08T07:17:55.828Z,74.00
2019-06-08T07:20:24.366Z,73.13
2019-06-08T07:22:52.871Z,72.92
2019-06-08T07:25:21.338Z,68.62
2019-06-08T07:27:50.523Z,68.79
2019-06-08T07:30:19.146Z,64.18
2019-06-08T07:32:49.141Z,65.32
2019-06-08T07:35:17.810Z,63.97
2019-06-08T07:37:47.281Z,65.86
2019-06-08T07:40:16.576Z,62.95
2019-06-08T07:42:45.082Z,64.51
2019-06-08T07:45:13.696Z,62.33
2019-06-08T07:47:42.294Z,57.27
2019-06-08T07:50:11.167Z,58.43
2019-06-08T07:52:39.663Z,57.21
2019-06-08T07:55:08.952Z,59.15
2019-06-08T07:57:37.455Z,58.00
2019-06-08T08:00:09.613Z,59.30
2019-06-08T08:02:38.341Z,57.33
2019-06-08T08:05:07.884Z,58.33
2019-06-08T08:07:36.722Z,58.09
2019-06-08T08:10:09.049Z,57.08
2019-06-08T08:12:38.096Z,60.47
2019-06-08T08:15:10.537Z,57.95
2019-06-08T08:17:39.492Z,58.84
2019-06-08T08:20:08.724Z,58.40
2019-06-08T08:22:38.174Z,59.68
2019-06-08T08:25:10.508Z,61.61
2019-06-08T08:27:39.112Z,59.10
2019-06-08T08:30:08.541Z,56.92
2019-06-08T08:32:37.984Z,57.03
2019-06-08T08:35:08.848Z,57.46
2019-06-08T08:37:38.179Z,57.21
2019-06-08T08:40:08.363Z,57.33
2019-06-08T08:42:38.659Z,57.13
2019-06-08T08:45:08.643Z,56.06
2019-06-08T08:47:38.705Z,56.90
2019-06-08T08:50:08.980Z,56.40
2019-06-08T08:52:40.708Z,52.62
2019-06-08T08:55:08.490Z,55.08
2019-06-08T08:57:41.170Z,54.59
2019-06-08T09:00:09.238Z,52.63
2019-06-08T09:02:38.034Z,54.96
2019-06-08T09:05:08.628Z,55.34
2019-06-08T09:07:38.465Z,52.78
2019-06-08T09:10:11.273Z,54.51
2019-06-08T09:12:39.517Z,52.06
2019-06-08T09:15:08.753Z,53.52
2019-06-08T09:17:38.841Z,54.77
2019-06-08T09:20:13.099Z,54.20
2019-06-08T09:22:52.319Z,55.05
2019-06-08T09:25:09.074Z,54.57
2019-06-08T09:27:38.251Z,55.26
2019-06-08T09:30:08.410Z,52.25
2019-06-08T09:32:38.213Z,55.10
2019-06-08T09:35:09.080Z,58.33
2019-06-08T09:37:37.621Z,54.60
2019-06-08T09:40:06.676Z,54.70
2019-06-08T09:42:35.227Z,56.07
2019-06-08T09:45:08.617Z,54.93
2019-06-08T09:47:38.114Z,53.88
2019-06-08T09:50:09.241Z,52.97
2019-06-08T09:52:40.937Z,53.05
2019-06-08T09:55:09.807Z,51.65
2019-06-08T09:57:38.642Z,52.94
2019-06-08T10:00:17.577Z,53.56
2019-06-08T10:02:38.973Z,51.95
2019-06-08T10:05:07.855Z,51.87
2019-06-08T10:07:38.943Z,49.96
2019-06-08T10:10:09.620Z,52.17
2019-06-08T10:12:37.784Z,51.57
2019-06-08T10:15:08.200Z,49.35
2019-06-08T10:17:37.719Z,53.64
2019-06-08T10:20:10.062Z,52.37
2019-06-08T10:22:37.750Z,48.37
2019-06-08T10:25:10.751Z,51.03
2019-06-08T10:27:38.640Z,52.81
2019-06-08T10:30:10.031Z,52.88
2019-06-08T10:32:39.207Z,50.70
2019-06-08T10:35:10.425Z,49.68
2019-06-08T10:37:38.737Z,50.89
2019-06-08T10:40:09.973Z,49.12
2019-06-08T10:42:40.167Z,49.63
2019-06-08T10:45:14.629Z,49.08
2019-06-08T10:47:40.596Z,47.85
2019-06-08T10:50:15.081Z,52.41
2019-06-08T10:52:41.073Z,49.50
2019-06-08T10:55:11.982Z,42.81
2019-06-08T10:57:39.974Z,42.58
2019-06-08T11:00:20.123Z,39.90
2019-06-08T11:02:42.995Z,43.17
2019-06-08T11:05:13.916Z,38.05
2019-06-08T11:07:41.888Z,38.73
2019-06-08T11:10:12.495Z,35.74
2019-06-08T11:12:41.123Z,34.93
2019-06-08T11:15:11.752Z,36.89
2019-06-08T11:17:40.223Z,33.25
2019-06-08T11:20:13.024Z,31.05
2019-06-08T11:22:39.068Z,31.67
2019-06-08T11:25:15.468Z,36.94
2019-06-08T11:27:38.872Z,33.02
2019-06-08T11:30:14.307Z,34.50
2019-06-08T11:32:38.354Z,34.45
2019-06-08T11:35:10.712Z,32.76
2019-06-08T11:37:38.675Z,34.84
2019-06-08T11:40:10.982Z,34.56
2019-06-08T11:42:38.876Z,38.07
2019-06-08T11:45:11.147Z,37.67
2019-06-08T11:47:39.567Z,34.97
2019-06-08T11:50:12.933Z,35.28
2019-06-08T11:52:39.811Z,32.67
2019-06-08T11:55:11.305Z,33.09
2019-06-08T11:57:40.429Z,31.51
2019-06-08T12:00:22.363Z,29.72
2019-06-08T12:02:41.421Z,31.76
2019-06-08T12:05:12.450Z,31.21
2019-06-08T12:07:40.653Z,32.28
2019-06-08T12:10:11.336Z,31.82
2019-06-08T12:12:39.415Z,28.75
2019-06-08T12:15:11.285Z,30.09
2019-06-08T12:17:38.631Z,30.71
2019-06-08T12:20:08.622Z,31.56
2019-06-08T12:22:37.765Z,29.41
2019-06-08T12:25:08.238Z,27.49
2019-06-08T12:27:40.137Z,28.74
2019-06-08T12:30:13.579Z,33.13
2019-06-08T12:32:37.432Z,30.73
2019-06-08T12:35:08.157Z,31.80
2019-06-08T12:37:38.730Z,31.17
2019-06-08T12:40:10.218Z,28.92
2019-06-08T12:42:38.279Z,32.02
2019-06-08T12:45:07.481Z,31.75
2019-06-08T12:47:38.090Z,29.79
2019-06-08T12:50:08.916Z,31.17
2019-06-08T12:52:39.134Z,32.25
2019-06-08T12:55:14.421Z,29.66
2019-06-08T12:57:38.490Z,28.92
2019-06-08T13:00:09.407Z,28.79
2019-06-08T13:02:38.390Z,28.63
2019-06-08T13:05:11.591Z,30.94
2019-06-08T13:07:38.695Z,30.15
2019-06-08T13:10:10.980Z,27.40
2019-06-08T13:12:40.914Z,27.03
2019-06-08T13:15:11.257Z,26.60
2019-06-08T13:17:40.124Z,28.08
2019-06-08T13:20:12.710Z,27.02
2019-06-08T13:22:41.222Z,27.51
2019-06-08T13:25:21.054Z,25.60
2019-06-08T13:27:39.991Z,25.75
2019-06-08T13:30:09.567Z,28.77
2019-06-08T13:32:40.265Z,25.54
2019-06-08T13:35:10.402Z,27.08
2019-06-08T13:37:39.221Z,27.12
2019-06-08T13:40:08.360Z,28.16
2019-06-08T13:42:38.285Z,28.98
2019-06-08T13:45:08.960Z,27.07
2019-06-08T13:47:40.976Z,26.78
2019-06-08T13:50:10.993Z,26.95
2019-06-08T13:52:40.211Z,29.61
2019-06-08T13:55:08.954Z,30.38
2019-06-08T13:57:38.275Z,31.43
2019-06-08T14:00:09.339Z,30.47
2019-06-08T14:02:39.800Z,29.11
2019-06-08T14:05:08.710Z,30.20
2019-06-08T14:07:38.098Z,29.09
2019-06-08T14:10:08.395Z,28.12
2019-06-08T14:12:38.430Z,28.73
2019-06-08T14:15:08.597Z,26.63
2019-06-08T14:17:37.901Z,26.62
2019-06-08T14:20:08.048Z,27.30
2019-06-08T14:22:38.855Z,27.68
2019-06-08T14:25:10.458Z,27.18
2019-06-08T14:27:37.578Z,25.57
2019-06-08T14:30:08.394Z,24.85
2019-06-08T14:32:38.098Z,25.14
2019-06-08T14:35:08.739Z,25.25
2019-06-08T14:37:38.070Z,27.87
2019-06-08T14:40:08.312Z,28.86
2019-06-08T14:42:38.350Z,29.69
2019-06-08T14:45:11.007Z,27.78
2019-06-08T14:47:39.704Z,25.63
2019-06-08T14:50:08.935Z,24.35
2019-06-08T14:52:38.123Z,26.39
2019-06-08T14:55:07.992Z,24.37
2019-06-08T14:57:37.474Z,25.16
2019-06-08T15:00:12.171Z,25.14
2019-06-08T15:02:38.930Z,23.29
2019-06-08T15:05:07.912Z,25.25
2019-06-08T15:07:38.655Z,28.56
2019-06-08T15:10:09.806Z,27.39
2019-06-08T15:12:38.395Z,25.84
2019-06-08T15:15:08.327Z,25.01
2019-06-08T15:17:38.071Z,25.59
2019-06-08T15:20:08.950Z,25.40
2019-06-08T15:22:38.860Z,27.85
2019-06-08T15:25:11.011Z,26.60
2019-06-08T15:27:38.942Z,23.31
2019-06-08T15:30:07.803Z,25.12
2019-06-08T15:32:38.564Z,26.05
2019-06-08T15:35:08.045Z,24.91
2019-06-08T15:37:37.976Z,26.25
2019-06-08T15:40:08.852Z,29.06
2019-06-08T15:42:37.390Z,29.30
2019-06-08T15:45:08.604Z,27.10
2019-06-08T15:47:40.510Z,24.84
2019-06-08T15:50:08.917Z,25.37
2019-06-08T15:52:38.079Z,28.06
2019-06-08T15:55:10.868Z,26.21
2019-06-08T15:57:40.790Z,25.33
2019-06-08T16:00:10.155Z,25.57
2019-06-08T16:02:38.803Z,27.25
2019-06-08T16:05:07.332Z,25.76
2019-06-08T16:07:35.812Z,25.69
2019-06-08T16:10:06.754Z,24.71
2019-06-08T16:12:35.243Z,26.16
2019-06-08T16:15:05.483Z,26.15
2019-06-08T16:17:35.432Z,25.36
2019-06-08T16:20:05.040Z,27.13
2019-06-08T16:22:33.879Z,26.99
2019-06-08T16:25:02.479Z,26.20
2019-06-08T16:27:32.160Z,25.52
2019-06-08T16:30:08.750Z,23.82
2019-06-08T16:32:31.528Z,25.92
2019-06-08T16:35:00.106Z,25.84
2019-06-08T16:37:29.542Z,24.90
2019-06-08T16:39:58.085Z,26.21
2019-06-08T16:42:27.861Z,26.44
2019-06-08T16:44:56.419Z,27.33
2019-06-08T16:47:25.093Z,27.58
2019-06-08T16:49:53.568Z,27.82
2019-06-08T16:52:22.075Z,28.65
2019-06-08T16:54:50.548Z,27.61
2019-06-08T16:57:19.040Z,27.27
2019-06-08T16:59:47.510Z,29.24
2019-06-08T17:02:17.080Z,27.77
2019-06-08T17:04:45.671Z,27.25
2019-06-08T17:07:14.167Z,26.84
2019-06-08T17:09:42.710Z,26.20
2019-06-08T17:12:11.698Z,28.20
2019-06-08T17:14:40.760Z,27.78
2019-06-08T17:17:09.398Z,29.39
2019-06-08T17:19:38.437Z,30.60
2019-06-08T17:22:07.149Z,29.51
2019-06-08T17:24:36.689Z,29.76
2019-06-08T17:27:05.297Z,28.09
2019-06-08T17:29:34.907Z,27.07
2019-06-08T17:32:03.554Z,25.53
2019-06-08T17:34:32.020Z,26.15
2019-06-08T17:37:00.527Z,25.98
2019-06-08T17:39:29.602Z,25.87
2019-06-08T17:41:58.160Z,26.92
2019-06-08T17:44:26.641Z,28.29
2019-06-08T17:46:55.232Z,27.23
2019-06-08T17:49:23.716Z,27.18
2019-06-08T17:51:52.222Z,26.98
2019-06-08T17:54:20.694Z,28.87
2019-06-08T17:56:49.191Z,27.68
2019-06-08T17:59:17.669Z,27.97
2019-06-08T18:01:46.735Z,28.70
2019-06-08T18:04:17.394Z,29.54
2019-06-08T18:06:47.372Z,30.13
2019-06-08T18:09:17.539Z,28.52
2019-06-08T18:11:48.025Z,29.64
2019-06-08T18:14:18.115Z,28.80
2019-06-08T18:16:47.987Z,32.55
2019-06-08T18:19:19.576Z,33.02
2019-06-08T18:21:48.072Z,30.52
2019-06-08T18:24:17.512Z,35.73
2019-06-08T18:26:47.473Z,36.48
2019-06-08T18:29:18.034Z,38.27
2019-06-08T18:31:48.066Z,42.06
2019-06-08T18:34:17.787Z,44.66
2019-06-08T18:36:47.950Z,46.66
2019-06-08T18:39:18.055Z,50.78
2019-06-08T18:41:48.424Z,50.92
2019-06-08T18:44:17.480Z,53.68
2019-06-08T18:46:48.186Z,54.21
2019-06-08T18:49:17.870Z,55.77
2019-06-08T18:51:49.080Z,58.53
2019-06-08T18:54:18.804Z,58.44
2019-06-08T18:56:48.825Z,58.62
2019-06-08T18:59:18.494Z,60.76
2019-06-08T19:01:49.490Z,62.28
2019-06-08T19:04:17.650Z,62.95
2019-06-08T19:06:48.778Z,63.85
2019-06-08T19:09:17.825Z,64.70
2019-06-08T19:11:48.416Z,66.90
2019-06-08T19:14:17.895Z,68.20
2019-06-08T19:16:51.429Z,69.04
2019-06-08T19:19:16.932Z,69.91
2019-06-08T19:21:46.017Z,69.89
2019-06-08T19:24:18.051Z,70.54
2019-06-08T19:26:47.397Z,71.82
2019-06-08T19:29:19.130Z,72.77
2019-06-08T19:31:49.704Z,72.83
2019-06-08T19:34:18.120Z,73.85
2019-06-08T19:36:52.140Z,74.25
2019-06-08T19:39:18.016Z,74.93
2019-06-08T19:41:49.231Z,74.58
2019-06-08T19:44:18.296Z,75.34
2019-06-08T19:46:51.999Z,76.38
2019-06-08T19:49:17.443Z,76.87
2019-06-08T19:51:49.365Z,77.08
2019-06-08T19:54:18.286Z,77.37
2019-06-08T19:56:49.374Z,77.37
2019-06-08T19:59:18.246Z,77.08
2019-06-08T20:01:51.361Z,77.58
2019-06-08T20:04:18.245Z,77.67
2019-06-08T20:06:48.095Z,77.90
2019-06-08T20:09:17.519Z,78.61
2019-06-08T20:11:52.469Z,79.29
2019-06-08T20:14:16.213Z,79.84
2019-06-08T20:16:44.794Z,80.60
2019-06-08T20:19:13.266Z,81.44
2019-06-08T20:21:42.831Z,81.78
2019-06-08T20:24:11.420Z,82.50
2019-06-08T20:26:39.886Z,81.95
2019-06-08T20:29:13.529Z,79.46
2019-06-08T20:31:39.117Z,79.35
2019-06-08T20:34:07.763Z,79.90
2019-06-08T20:36:37.526Z,80.06
2019-06-08T20:39:08.346Z,80.70
2019-06-08T20:41:37.693Z,80.67
2019-06-08T20:44:08.480Z,80.79
2019-06-08T20:46:37.763Z,81.20
2019-06-08T20:49:08.391Z,81.41
2019-06-08T20:51:37.515Z,81.85
2019-06-08T20:54:07.940Z,82.72
2019-06-08T20:56:37.190Z,83.60
2019-06-08T20:59:08.036Z,84.18
2019-06-08T21:01:36.030Z,85.18
2019-06-08T21:04:04.668Z,86.00
2019-06-08T21:06:33.142Z,85.96
2019-06-08T21:09:01.620Z,86.10
2019-06-08T21:11:30.214Z,86.55
2019-06-08T21:13:58.678Z,84.70
2019-06-08T21:16:27.664Z,83.78
2019-06-08T21:18:58.048Z,84.87
2019-06-08T21:21:28.351Z,84.40
2019-06-08T21:24:00.964Z,84.86
2019-06-08T21:26:27.292Z,84.42
2019-06-08T21:29:00.135Z,84.37
2019-06-08T21:31:28.401Z,84.91
2019-06-08T21:34:00.472Z,86.45
2019-06-08T21:36:26.476Z,86.25
2019-06-08T21:38:59.891Z,86.40
2019-06-08T21:41:27.732Z,85.60
2019-06-08T21:43:59.594Z,85.98
2019-06-08T21:46:27.528Z,85.60
2019-06-08T21:48:56.895Z,85.31
2019-06-08T21:51:26.342Z,85.79
2019-06-08T21:53:54.809Z,85.97
2019-06-08T21:56:23.313Z,85.95
2019-06-08T21:58:53.045Z,86.27
2019-06-08T22:01:22.691Z,86.68
2019-06-08T22:03:51.727Z,87.09
2019-06-08T22:06:20.338Z,88.28
2019-06-08T22:08:49.915Z,87.33
2019-06-08T22:11:18.596Z,87.78
2019-06-08T22:13:47.629Z,88.23
2019-06-08T22:16:16.377Z,86.71
2019-06-08T22:18:47.329Z,87.65
2019-06-08T22:21:17.919Z,88.44
2019-06-08T22:23:47.478Z,90.06
2019-06-08T22:26:17.639Z,91.18
2019-06-08T22:28:48.047Z,89.29
2019-06-08T22:31:17.115Z,87.09
2019-06-08T22:33:48.169Z,89.67
2019-06-08T22:36:16.955Z,90.12
2019-06-08T22:38:47.603Z,88.92
2019-06-08T22:41:17.346Z,88.54
2019-06-08T22:43:48.001Z,89.34
2019-06-08T22:46:17.802Z,89.36
2019-06-08T22:48:47.802Z,88.08
2019-06-08T22:51:18.748Z,89.03
2019-06-08T22:53:47.800Z,89.33
2019-06-08T22:56:18.280Z,89.22
2019-06-08T22:58:47.931Z,91.42
2019-06-08T23:01:18.363Z,90.86
2019-06-08T23:03:47.644Z,90.09
2019-06-08T23:06:17.711Z,90.83
2019-06-08T23:08:48.038Z,88.62
2019-06-08T23:11:18.000Z,88.73
2019-06-08T23:13:47.313Z,88.40
2019-06-08T23:16:18.008Z,89.02
2019-06-08T23:18:47.784Z,89.85
2019-06-08T23:21:18.059Z,90.57
2019-06-08T23:23:47.749Z,89.10
2019-06-08T23:26:18.330Z,90.41
2019-06-08T23:28:47.144Z,93.87
2019-06-08T23:31:24.198Z,93.75
2019-06-08T23:33:48.280Z,92.71
2019-06-08T23:36:45.523Z,91.53
2019-06-08T23:38:48.127Z,92.88
2019-06-08T23:41:17.716Z,93.66
2019-06-08T23:43:48.107Z,93.77
2019-06-08T23:46:18.083Z,94.32
2019-06-08T23:48:48.442Z,91.71
2019-06-08T23:51:18.112Z,91.63
2019-06-08T23:53:47.787Z,90.42
2019-06-08T23:56:18.355Z,89.76
2019-06-08T23:58:48.267Z,90.84
